Portland, OR

6:18 PM PDT on September 02, 2014 (GMT -0700)
Portland - West Hills | Change Station
CLOSE
Current Station
Personal Weather Station
Location: Portland, OR
Elevation: 820 ft
Nearby Weather Stations

Elev 820 ft 45.49 °N, 122.69 °W | Updated 5 seconds ago

Overcast
Overcast
66.3 °F
Feels Like 66.3 °F
N
3.0
Wind Variable Wind from WNW
Gusts 13.0 mph

Today
High -- | Low -- °F
--% Chance of Precip.
Yesterday
High -- | Low -- °F
Precip. -- in
6:33 AM 7:46 PM
First Quarter, 57% visible
Pressure 29.90 in
Visibility 10.0 miles
Clouds Few 3500 ft
Mostly Cloudy 6000 ft
Mostly Cloudy 9000 ft
Dew Point 16 °F
Humidity 14%
Rainfall 0.00 in
Snow Depth Not available.
UV 1 out of 12
Pollen 3.60 out of 12
Ozone Good
PM2.5 Good
Flu Activity Not available.
METAR KPDX 030053Z 32011G17KT 10SM FEW035 BKN060 BKN090 22/12 A2990 RMK AO2 SLP124 T02170117

More Conditions Fewer Conditions

Pressure 29.90 in
Visibility 10.0 miles
Clouds Few 3500 ft
Mostly Cloudy 6000 ft
Mostly Cloudy 9000 ft
Dew Point 16 °F
Humidity 14%
Rainfall 0.00 in
Snow Depth Not available.
UV 1 out of 12
Pollen 3.60 out of 12
Ozone Good
PM2.5 Good
Flu Activity Not available.
METAR KPDX 030053Z 32011G17KT 10SM FEW035 BKN060 BKN090 22/12 A2990 RMK AO2 SLP124 T02170117

More Conditions Fewer Conditions

Nowcast | as of 6:16 PM PDT on September 2, 2014

At 615 PM...a weak Pacific front was moving through southwest Washington and northwest Oregon...with a marine push trailing the front. West winds of 10 to 20 mph will be common through much of the evening...with a few gusts to 25 mph. Gusts of 30 to 40 mph will be possible downstream of gaps in the coastal terrain and in the central Columbia River gorge around Hood River.

×

10-Day Weather Forecast

Almanac

Astronomy

Sep. 02, 2014 Rise Set
Actual Time 6:33 AM PDT 7:46 PM PDT
Civil Twilight 6:02 AM PDT 8:16 PM PDT
Nautical Twilight 5:26 AM PDT 8:53 PM PDT
Astronomical Twilight 4:47 AM PDT 9:32 PM PDT
Moon 2:44 PM PDT (9/2) No Moon Set
Length of Visible Light 14h 13m
Length of Day
13h 12m
Tomorrow will be 3m 5s shorter.
First Quarter, 57% of the Moon is Illuminated
Today
First Quarter
Sep 8
Full
Sep 15
Last Quarter
Sep 24
New
Oct 1
First Quarter

Today's Extremes

State Highs State Lows

Community

WunderPhotos

Upload Photos

1,749,826 photos uploaded!

Nearby

Air Quality

  Air Quality AQ Index Pollutant
Yesterday Good
OZONE
Yesterday Good
PM2.5
Current Good
OZONE
Current Good
PM2.5
Tuesday Good
PM2.5
Wednesday Good
PM2.5

Snow Depth

Station Depth Elevation
Seine Creek 0 in 2000 ft
North Fork 1 in 3120 ft
Saddle Mountain 5 in 3250 ft
Blazed Alder 0 in 3650 ft
Red Hill 0 in 4400 ft

Earthquake Activity

City Distance Mag. Time & Date
No recent earthquake activity has been reported nearby.
Minimum magnitude displayed is 2.5.

Coastal Water Temperatures

Place Temperature
No Stations Reporting

Nearby Weather Stations